Aviation Digital Data Service (ADDS)

Output produced by METARs form (0929 UTC 25 June 2018)
found at http://www.aviationweather.gov/adds/metars/
 
KGLH 250853Z AUTO 00000KT 10SM CLR 22/21 A2995 RMK AO2 SLP145 T02220211 53009
KGLH 250753Z AUTO 20006KT 10SM CLR 22/21 A2989 RMK AO2 PRESRR SLP127 T02170206
KGLH 250653Z AUTO 16013KT 10SM CLR 21/20 A2986 RMK AO2 SLP117 T02110200
KGLH 250553Z AUTO 13011KT 10SM CLR 21/20 A2992 RMK AO2 PRESFR SLP136 60004 T02110200 10311 20206 403220206 58035
KGLH 250505Z AUTO 16004KT 10SM CLR 21/20 A2999 RMK AO2 LTG DSNT E AND SE T02110200
KGLH 250453Z AUTO 00000KT 10SM VCTS FEW055 21/20 A3001 RMK AO2 RAE28 SLP166 P0003 T02110200
KGLH 250450Z AUTO 13003KT 10SM VCTS FEW055 21/19 A3002 RMK AO2 LTG DSNT SW RAE28 P0003
KGLH 250425Z AUTO 36005KT 10SM -RA BKN037 BKN080 21/20 A3002 RMK AO2 LTG DSNT NE AND SW P0003 T02110200
KGLH 250410Z AUTO 32012KT 6SM VCTS -RA BR FEW036 BKN047 OVC070 21/20 A3002 RMK AO2 LTG DSNT N AND NE AND SW P0003 T02110200
KGLH 250353Z AUTO 32018G28KT 6SM -RA BR FEW027 BKN040 OVC090 22/19 A3002 RMK AO2 PK WND 30039/0334 WSHFT 0331 LTG DSNT SW-N RAB50 SLP171 P0001 T02170194
KGLH 250351Z AUTO 32019G28KT 8SM -RA FEW027 BKN040 OVC090 22/19 A3002 RMK AO2 PK WND 30039/0334 WSHFT 0331 LTG DSNT SW-N RAB50 P0000
KGLH 250336Z AUTO 31027G39KT 10SM SQ FEW024 SCT030 SCT090 22/21 A3001 RMK AO2 PK WND 30039/0334 LTG DSNT W-N PRESRR T02220206
KGLH 250253Z AUTO 16006KT 10SM CLR 26/24 A2996 RMK AO2 LTG DSNT W SLP151 T02560239 53010
KGLH 250153Z AUTO 13006KT 10SM FEW085 26/25 A2994 RMK AO2 SLP142 T02610250
KGLH 250053Z AUTO 15004KT 10SM CLR 27/24 A2995 RMK AO2 SLP146 T02670239
KGLH 242353Z AUTO 18003KT 10SM FEW037 31/23 A2993 RMK AO2 SLP141 T03060233 10322 20289 53000
KGLH 242253Z 17009KT 10SM CLR 31/23 A2992 RMK AO2 SLP136 T03110233
KGLH 242153Z 17010KT 10SM FEW033 32/23 A2992 RMK AO2 SLP137 T03220228
KGLH 242053Z 17009KT 10SM CLR 32/23 A2993 RMK AO2 SLP140 T03220228 56016
KGLH 241953Z 18009KT 10SM CLR 31/22 A2994 RMK AO2 SLP143 T03060222
KGLH 241853Z 21007KT 10SM FEW030 31/22 A2997 RMK AO2 SLP151 T03110217
KGLH 241753Z 21007KT 10SM SCT032 SCT039 BKN046 30/22 A2998 RMK AO2 SLP157 T03000222 10306 20239 58001
KGLH 241653Z 25007KT 10SM SCT029 BKN040 BKN050 29/22 A3002 RMK AO2 SLP169 T02890222
KGLH 241553Z 25012KT 10SM SCT025 BKN032 27/22 A3001 RMK AO2 SLP167 T02720217
KGLH 241538Z 25009KT 10SM FEW023 SCT029 27/22 A3000 RMK AO2 T02720222
KGLH 241453Z 23011KT 10SM SCT019 BKN027 28/22 A2998 RMK AO2 SLP158 T02780222 51015
KGLH 241353Z 22011KT 10SM BKN018 BKN024 25/22 A2998 RMK AO2 SLP156 T02500222
KGLH 241253Z 20009KT 10SM BKN018 24/23 A2995 RMK AO2 SLP147 T02440228
KGLH 241213Z 21007KT 10SM SCT014 24/23 A2995 RMK AO2 T02390228
KGLH 241204Z 21007KT 10SM BKN014 24/23 A2995 RMK AO2 T02390228
KGLH 241153Z 20010KT 10SM BKN015 24/23 A2994 RMK AO2 SLP143 T02390228 10256 20239 53013
KGLH 241144Z 19009KT 10SM BKN015 24/23 A2994 RMK AO2 T02390228
KGLH 241135Z AUTO 20007KT 10SM BKN013 BKN018 24/23 A2994 RMK AO2 T02390228
KGLH 241053Z AUTO 20006KT 10SM CLR 24/22 A2993 RMK AO2 SLP138 T02390222
KGLH 240953Z AUTO 20011KT 10SM FEW055 26/23 A2990 RMK AO2 SLP129 T02560228
KGLH 240853Z AUTO 21012KT 10SM BKN060 24/23 A2990 RMK AO2 SLP129 T02440228 51012
KGLH 240753Z AUTO 21012KT 10SM CLR 25/23 A2990 RMK AO2 SLP128 T02500228
KGLH 240653Z AUTO 21008KT 10SM CLR 24/23 A2989 RMK AO2 SLP125 T02440228
KGLH 240553Z AUTO 18007KT 10SM CLR 24/23 A2987 RMK AO2 SLP117 T02440228 10306 20244 403330211 51006
KGLH 240453Z AUTO 17006KT 10SM CLR 24/23 A2986 RMK AO2 SLP118 T02440228
KGLH 240353Z AUTO 17006KT 10SM CLR 25/23 A2986 RMK AO2 SLP116 T02500228
KGLH 240253Z AUTO 16006KT 10SM CLR 25/23 A2985 RMK AO2 SLP113 T02500233 53011
KGLH 240153Z AUTO 16006KT 10SM CLR 26/23 A2984 RMK AO2 SLP108 T02560233
KGLH 240053Z AUTO 18006KT 10SM CLR 28/23 A2983 RMK AO2 SLP105 T02830228
KGLH 232353Z AUTO 18009KT 10SM CLR 30/23 A2982 RMK AO2 SLP101 T03000233 10333 20300 58001
KGLH 232253Z 20010KT 10SM CLR 32/23 A2982 RMK AO2 SLP100 T03220228
KGLH 232153Z 21009KT 10SM BKN034 33/23 A2983 RMK AO2 SLP104 T03280233
KGLH 232053Z 21012KT 10SM FEW034 32/23 A2982 RMK AO2 SLP101 T03220233 55015
KGLH 231953Z 20016KT 10SM CLR 33/24 A2979 RMK AO2 PK WND 19026/1938 SLP093 T03280239
KGLH 231853Z 20017KT 10SM CLR 33/23 A2982 RMK AO2 PRESFR SLP102 T03280233
KGLH 231753Z 23015KT 10SM CLR 32/23 A2986 RMK AO2 SLP117 T03170233 10317 20250 58006
KGLH 231653Z 21017G22KT 10SM FEW021 30/24 A2988 RMK AO2 SLP123 T03000239
KGLH 231553Z 23014KT 10SM FEW018 27/24 A2989 RMK AO2 SLP127 T02720239
KGLH 231543Z 24013KT 10SM SCT018 29/24 A2989 RMK AO2 T02890239
KGLH 231453Z 23014KT 10SM BKN018 27/23 A2988 RMK AO2 SLP123 T02670233 51009
KGLH 231449Z 24011KT 10SM BKN018 27/23 A2988 RMK AO2
KGLH 231353Z 22010KT 10SM FEW014 SCT032 26/23 A2986 RMK AO2 SLP115 T02560233
KGLH 231348Z 23013KT 9SM SCT014 BKN032 BKN045 26/23 A2985 RMK AO2
KGLH 231253Z 22010KT 7SM OVC012 25/24 A2985 RMK AO2 SLP114 T02500239
KGLH 231238Z 21011KT 6SM BR BKN012 BKN020 26/24 A2985 RMK AO2 T02560244
KGLH 231211Z 22012KT 6SM BR SCT011 BKN019 26/24 A2985 RMK AO2 T02560239
KGLH 231201Z 22013KT 6SM BR SCT011 SCT018 26/24 A2985 RMK AO2 T02560239
KGLH 231153Z 22010KT 5SM BR BKN011 BKN019 26/24 A2985 RMK AO2 SLP112 70025 T02560244 10256 20211 51011
KGLH 231149Z 22011KT 5SM BR BKN014 BKN019 26/24 A2985 RMK AO2
KGLH 231111Z AUTO 23012KT 6SM BR OVC015 25/24 A2984 RMK AO2 T02500239
KGLH 231053Z AUTO 23011KT 7SM OVC013 25/24 A2985 RMK AO2 SLP112 T02500239
KGLH 231036Z AUTO 23011G18KT 7SM OVC010 25/24 A2984 RMK AO2 T02500239
KGLH 230953Z AUTO 22012KT 7SM OVC007 24/23 A2981 RMK AO2 SLP101 T02440233
KGLH 230853Z AUTO 21011KT 8SM BKN009 24/23 A2978 RMK AO2 SLP087 T02440233 55000
KGLH 230851Z AUTO 21009KT 8SM BKN009 24/23 A2977 RMK AO2
KGLH 230837Z AUTO 19007KT 8SM FEW009 23/22 A2977 RMK AO2 T02330222
KGLH 230753Z AUTO 18007KT 10SM CLR 22/21 A2977 RMK AO2 SLP086 T02220211
KGLH 230653Z AUTO 18005KT 10SM CLR 21/21 A2978 RMK AO2 SLP088 T02110206
KGLH 230553Z AUTO 18005KT 10SM FEW060 21/21 A2979 RMK AO2 SLP093 T02110206 10233 20211 402720206 50004
KGLH 230453Z AUTO 18004KT 10SM CLR 21/20 A2979 RMK AO2 SLP094 T02110200
KGLH 230353Z AUTO 18003KT 10SM CLR 21/20 A2978 RMK AO2 SLP090 T02110200
KGLH 230253Z AUTO 18007KT 10SM CLR 21/20 A2978 RMK AO2 SLP090 T02110200 55005
KGLH 230153Z AUTO 19006KT 10SM CLR 21/20 A2977 RMK AO2 SLP086 T02110200
KGLH 230053Z AUTO 18008KT 10SM CLR 22/21 A2978 RMK AO2 SLP088 T02170206
KGLH 222353Z AUTO 18008KT 10SM FEW110 22/21 A2979 RMK AO2 LTG DSNT SE RAE2256 SLP094 P0000 60021 T02220211 10244 20217 58005
KGLH 222314Z 18010KT 10SM FEW005 SCT047 BKN070 22/21 A2978 RMK AO2 LTG DSNT SE AND S RAE2256 P0000 T02220211
KGLH 222301Z 18011KT 10SM VCTS BKN005 BKN038 OVC055 22/21 A2980 RMK AO2 LTG DSNT S AND SW RAE2256 P0000 T02170211
KGLH 222253Z 17013KT 9SM VCTS -RA SCT004 BKN020 OVC060 22/21 A2979 RMK AO2 LTG DSNT S AND SW RAB2154E02B43 SLP094 P0001 T02220211
KGLH 222251Z 17012KT 6SM VCTS -RA BR SCT004 BKN020 OVC060 22/21 A2980 RMK AO2 LTG DSNT S AND SW RAB2154E02B43 P0001
KGLH 222229Z 18009KT 10SM FEW004 SCT050 BKN090 22/21 A2980 RMK AO2 LTG DSNT SW AND W RAB2154E02 P0000 T02220211
KGLH 222153Z 21008KT 10SM FEW050 BKN060 OVC070 22/21 A2981 RMK AO2 LTG DSNT S RAE2055 SLP100 P0000 T02170206
KGLH 222128Z 20007KT 10SM SCT055 BKN070 22/21 A2981 RMK AO2 LTG DSNT SE-SW RAE2055 P0000 T02170206
KGLH 222053Z 24008KT 8SM VCTS -RA FEW055 SCT075 BKN090 22/21 A2981 RMK AO2 LTG DSNT E-SW TSE53 SLP098 P0017 60020 T02170206 56010
KGLH 222050Z 25010KT 3SM -TSRA BR FEW060 SCT075 BKN090 22/21 A2980 RMK AO2 LTG DSNT E-SW P0017
KGLH 222042Z 31006G16KT 1 3/4SM +TSRA BR FEW012 BKN075 OVC110 22/21 A2979 RMK AO2 LTG DSNT ALQDS PRESFR P0017 T02170206
KGLH 222018Z 22014KT 3SM TSRA BR SCT012 BKN075 OVC095 22/21 A2983 RMK AO2 LTG DSNT ALQDS P0011 T02170206
KGLH 222009Z 21007KT 1 1/2SM +TSRA BR FEW012 BKN075 OVC100 22/21 A2981 RMK AO2 LTG DSNT ALQDS P0009 T02170206
KGLH 221953Z 20013KT 2 1/2SM TSRA BR FEW023 BKN070 OVC110 22/21 A2983 RMK AO2 LTG DSNT ALQDS RAB14 TSB15 SLP105 P0003 T02170206
KGLH 221921Z 21008KT 10SM -TSRA FEW026 SCT033 BKN042 23/20 A2981 RMK AO2 LTG DSNT SW-NW RAB14 TSB15 P0000 T02330200
KGLH 221906Z 19008KT 10SM VCTS SCT044 SCT065 23/20 A2979 RMK AO2 LTG DSNT S-NW PRESFR T02330200
KGLH 221853Z 22012KT 10SM FEW042 FEW049 SCT060 24/20 A2982 RMK AO2 LTG DSNT S-NW SLP102 T02390200
KGLH 221753Z 23015G26KT 10SM FEW060 SCT070 SCT090 22/20 A2984 RMK AO2 PK WND 22026/1750 LTG DSNT S-W SLP109 60004 T02220200 10261 20206 56008
KGLH 221653Z 22010KT 10SM CLR 23/19 A2984 RMK AO2 LTG DSNT SW AND W RAE1556 SLP110 P0000 T02280189
KGLH 221553Z 22012KT 10SM -RA BKN100 OVC110 21/19 A2985 RMK AO2 LTG DSNT SE-SW TSB14E29 SLP112 P0004 T02110194
KGLH 221531Z 24014KT 5SM -RA BR FEW080 OVC110 21/19 A2987 RMK AO2 LTG DSNT E-SW TSB14E29 P0001 T02060194
KGLH 221520Z 26017G25KT 9SM -TSRA FEW080 FEW100 OVC110 21/19 A2989 RMK AO2 LTG DSNT ALQDS TSB14 P0000 T02110189
KGLH 221453Z 27011G21KT 10SM VCTS -RA FEW026 BKN044 BKN085 23/19 A2986 RMK AO2 PK WND 28027/1433 LTG DSNT SE-W RAB34 SLP117 P0000 60000 T02330194 53017
KGLH 221436Z 27019G27KT 10SM -RA SCT017 BKN028 BKN036 26/21 A2987 RMK AO2 PK WND 28027/1433 LTG DSNT ALQDS RAB34 P0000 T02560211
KGLH 221353Z 25009KT 6SM BR OVC011 26/24 A2984 RMK AO2 LTG DSNT S-NW CIG 009V014 SLP110 T02610239
KGLH 221330Z 24011KT 7SM OVC012 26/23 A2983 RMK AO2 LTG DSNT S-W T02610233
KGLH 221315Z 22010KT 7SM VCTS OVC011 26/24 A2982 RMK AO2 T02610239
KGLH 221305Z 23012KT 7SM OVC010 26/24 A2983 RMK AO2 T02610239
KGLH 221253Z 24013G19KT 6SM BR OVC009 26/24 A2983 RMK AO2 CIG 008V014 SLP105 T02610239
KGLH 221235Z 22012KT 6SM HZ OVC009 26/23 A2982 RMK AO2 CIG 008V013 T02610233
KGLH 221212Z 21012KT 6SM HZ OVC010 26/23 A2981 RMK AO2 CIG 008V013 T02610233
KGLH 221153Z 22009KT 5SM BR BKN009 OVC013 26/24 A2981 RMK AO2 SLP099 7//// T02610239 10272 20250 51005
KGLH 221053Z AUTO 22010KT 6SM BR BKN009 26/23 A2981 RMK AO2 SLP099 T02560233
KGLH 221034Z AUTO 23010KT 8SM BKN010 26/23 A2981 RMK AO2 T02560233
KGLH 220953Z AUTO 22009KT 9SM CLR 25/23 A2980 RMK AO2 SLP096 T02500233